sensor_id;sensor_type;location;lat;lon;timestamp;temperature;humidity
16140;DHT22;8175;49.326;12.690;2023-05-07T00:00:36;11.20;99.90
16140;DHT22;8175;49.326;12.690;2023-05-07T00:03:01;11.10;99.90
16140;DHT22;8175;49.326;12.690;2023-05-07T00:05:27;10.90;99.90
16140;DHT22;8175;49.326;12.690;2023-05-07T00:07:52;10.90;99.90
16140;DHT22;8175;49.326;12.690;2023-05-07T00:10:19;10.90;99.90
16140;DHT22;8175;49.326;12.690;2023-05-07T00:12:45;10.80;99.90
16140;DHT22;8175;49.326;12.690;2023-05-07T00:15:10;10.60;99.90
16140;DHT22;8175;49.326;12.690;2023-05-07T00:17:36;10.30;99.90
16140;DHT22;8175;49.326;12.690;2023-05-07T00:20:03;10.20;99.90
16140;DHT22;8175;49.326;12.690;2023-05-07T00:22:30;10.10;99.90
16140;DHT22;8175;49.326;12.690;2023-05-07T00:24:56;10.00;99.90
16140;DHT22;8175;49.326;12.690;2023-05-07T00:27:22;9.90;99.90
16140;DHT22;8175;49.326;12.690;2023-05-07T00:29:48;9.80;99.90
16140;DHT22;8175;49.326;12.690;2023-05-07T00:32:13;9.60;99.90
16140;DHT22;8175;49.326;12.690;2023-05-07T00:34:40;9.70;99.90
16140;DHT22;8175;49.326;12.690;2023-05-07T00:37:06;9.60;99.90
16140;DHT22;8175;49.326;12.690;2023-05-07T00:39:33;9.60;99.90
16140;DHT22;8175;49.326;12.690;2023-05-07T00:41:59;9.60;99.90
16140;DHT22;8175;49.326;12.690;2023-05-07T00:44:26;9.50;99.90
16140;DHT22;8175;49.326;12.690;2023-05-07T00:46:52;9.40;99.90
16140;DHT22;8175;49.326;12.690;2023-05-07T00:49:19;9.30;99.90
16140;DHT22;8175;49.326;12.690;2023-05-07T00:51:46;9.20;99.90
16140;DHT22;8175;49.326;12.690;2023-05-07T00:54:12;9.20;99.90
16140;DHT22;8175;49.326;12.690;2023-05-07T00:56:38;9.20;99.90
16140;DHT22;8175;49.326;12.690;2023-05-07T00:59:05;9.10;99.90
16140;DHT22;8175;49.326;12.690;2023-05-07T01:01:31;9.10;99.90
16140;DHT22;8175;49.326;12.690;2023-05-07T01:03:57;9.20;99.90
16140;DHT22;8175;49.326;12.690;2023-05-07T01:06:25;9.10;99.90
16140;DHT22;8175;49.326;12.690;2023-05-07T01:08:54;9.00;99.90
16140;DHT22;8175;49.326;12.690;2023-05-07T01:11:22;8.90;99.90
16140;DHT22;8175;49.326;12.690;2023-05-07T01:13:49;8.90;99.90
16140;DHT22;8175;49.326;12.690;2023-05-07T01:16:15;8.90;99.90
16140;DHT22;8175;49.326;12.690;2023-05-07T01:18:41;8.70;99.90
16140;DHT22;8175;49.326;12.690;2023-05-07T01:21:08;8.70;99.90
16140;DHT22;8175;49.326;12.690;2023-05-07T01:23:36;8.60;99.90
16140;DHT22;8175;49.326;12.690;2023-05-07T01:26:01;8.50;99.90
16140;DHT22;8175;49.326;12.690;2023-05-07T01:28:27;8.60;99.90
16140;DHT22;8175;49.326;12.690;2023-05-07T01:30:58;8.60;99.90
16140;DHT22;8175;49.326;12.690;2023-05-07T01:33:30;8.50;99.90
16140;DHT22;8175;49.326;12.690;2023-05-07T01:35:57;8.50;99.90
16140;DHT22;8175;49.326;12.690;2023-05-07T01:38:26;8.40;99.90
16140;DHT22;8175;49.326;12.690;2023-05-07T01:40:52;8.50;99.90
16140;DHT22;8175;49.326;12.690;2023-05-07T01:43:19;8.40;99.90
16140;DHT22;8175;49.326;12.690;2023-05-07T01:45:45;8.40;99.90
16140;DHT22;8175;49.326;12.690;2023-05-07T01:48:11;9.00;99.90
16140;DHT22;8175;49.326;12.690;2023-05-07T01:50:38;8.90;99.90
16140;DHT22;8175;49.326;12.690;2023-05-07T01:53:04;8.90;99.90
16140;DHT22;8175;49.326;12.690;2023-05-07T01:55:30;9.20;99.90
16140;DHT22;8175;49.326;12.690;2023-05-07T01:57:56;9.20;99.90
16140;DHT22;8175;49.326;12.690;2023-05-07T02:00:22;9.20;99.90
16140;DHT22;8175;49.326;12.690;2023-05-07T02:02:47;9.30;99.90
16140;DHT22;8175;49.326;12.690;2023-05-07T02:05:13;9.20;99.90
16140;DHT22;8175;49.326;12.690;2023-05-07T02:07:39;9.50;99.90
16140;DHT22;8175;49.326;12.690;2023-05-07T02:10:05;9.40;99.90
16140;DHT22;8175;49.326;12.690;2023-05-07T02:12:30;9.30;99.90
16140;DHT22;8175;49.326;12.690;2023-05-07T02:14:56;9.20;99.90
16140;DHT22;8175;49.326;12.690;2023-05-07T04:26:17;8.20;99.90
16140;DHT22;8175;49.326;12.690;2023-05-07T04:28:43;8.30;99.90
16140;DHT22;8175;49.326;12.690;2023-05-07T04:31:09;8.20;99.90
16140;DHT22;8175;49.326;12.690;2023-05-07T04:33:35;8.30;99.90
16140;DHT22;8175;49.326;12.690;2023-05-07T04:36:04;8.40;99.90
16140;DHT22;8175;49.326;12.690;2023-05-07T04:38:30;8.50;99.90
16140;DHT22;8175;49.326;12.690;2023-05-07T04:40:58;8.50;99.90
16140;DHT22;8175;49.326;12.690;2023-05-07T04:43:23;8.70;99.90
16140;DHT22;8175;49.326;12.690;2023-05-07T04:45:52;8.80;99.90
16140;DHT22;8175;49.326;12.690;2023-05-07T04:48:18;8.90;99.90
16140;DHT22;8175;49.326;12.690;2023-05-07T04:50:49;9.00;99.90
16140;DHT22;8175;49.326;12.690;2023-05-07T04:53:15;9.00;99.90
16140;DHT22;8175;49.326;12.690;2023-05-07T04:55:40;9.10;99.90
16140;DHT22;8175;49.326;12.690;2023-05-07T04:58:06;9.20;99.90
16140;DHT22;8175;49.326;12.690;2023-05-07T05:00:31;9.20;99.90
16140;DHT22;8175;49.326;12.690;2023-05-07T05:02:57;9.20;99.90
16140;DHT22;8175;49.326;12.690;2023-05-07T05:05:23;9.30;99.90
16140;DHT22;8175;49.326;12.690;2023-05-07T05:07:48;9.30;99.90
16140;DHT22;8175;49.326;12.690;2023-05-07T05:10:14;9.30;99.90
16140;DHT22;8175;49.326;12.690;2023-05-07T05:12:39;9.40;99.90
16140;DHT22;8175;49.326;12.690;2023-05-07T05:15:06;9.50;99.90
16140;DHT22;8175;49.326;12.690;2023-05-07T05:17:31;9.60;99.90
16140;DHT22;8175;49.326;12.690;2023-05-07T05:19:59;9.70;99.90
16140;DHT22;8175;49.326;12.690;2023-05-07T05:22:25;9.70;99.90
16140;DHT22;8175;49.326;12.690;2023-05-07T05:24:51;9.80;99.90
16140;DHT22;8175;49.326;12.690;2023-05-07T05:27:16;9.90;99.90
16140;DHT22;8175;49.326;12.690;2023-05-07T05:29:42;9.90;99.90
16140;DHT22;8175;49.326;12.690;2023-05-07T05:32:08;10.10;99.90
16140;DHT22;8175;49.326;12.690;2023-05-07T05:34:33;10.10;99.90
16140;DHT22;8175;49.326;12.690;2023-05-07T05:36:59;10.20;99.90
16140;DHT22;8175;49.326;12.690;2023-05-07T05:39:25;10.30;99.90
16140;DHT22;8175;49.326;12.690;2023-05-07T05:41:50;10.50;99.90
16140;DHT22;8175;49.326;12.690;2023-05-07T05:44:16;10.60;99.90
16140;DHT22;8175;49.326;12.690;2023-05-07T05:46:42;10.80;99.90
16140;DHT22;8175;49.326;12.690;2023-05-07T05:49:07;10.90;99.90
16140;DHT22;8175;49.326;12.690;2023-05-07T05:51:33;10.90;99.90
16140;DHT22;8175;49.326;12.690;2023-05-07T05:53:59;11.20;99.90
16140;DHT22;8175;49.326;12.690;2023-05-07T05:56:25;11.40;99.90
16140;DHT22;8175;49.326;12.690;2023-05-07T05:58:51;11.70;99.90
16140;DHT22;8175;49.326;12.690;2023-05-07T06:01:17;11.70;99.90
16140;DHT22;8175;49.326;12.690;2023-05-07T06:03:44;11.90;99.90
16140;DHT22;8175;49.326;12.690;2023-05-07T06:06:09;12.20;99.90
16140;DHT22;8175;49.326;12.690;2023-05-07T06:08:35;12.50;99.90
16140;DHT22;8175;49.326;12.690;2023-05-07T06:11:01;12.70;99.90
16140;DHT22;8175;49.326;12.690;2023-05-07T06:13:28;12.90;99.90
16140;DHT22;8175;49.326;12.690;2023-05-07T06:15:53;13.00;99.90
16140;DHT22;8175;49.326;12.690;2023-05-07T06:18:19;13.20;99.90
16140;DHT22;8175;49.326;12.690;2023-05-07T06:20:45;13.20;99.90
16140;DHT22;8175;49.326;12.690;2023-05-07T06:23:10;13.40;99.90
16140;DHT22;8175;49.326;12.690;2023-05-07T06:25:36;13.50;99.90
16140;DHT22;8175;49.326;12.690;2023-05-07T06:28:02;13.70;99.90
16140;DHT22;8175;49.326;12.690;2023-05-07T06:30:28;13.60;99.90
16140;DHT22;8175;49.326;12.690;2023-05-07T06:32:53;13.90;99.90
16140;DHT22;8175;49.326;12.690;2023-05-07T06:35:19;14.30;99.90
16140;DHT22;8175;49.326;12.690;2023-05-07T06:37:45;14.30;99.90
16140;DHT22;8175;49.326;12.690;2023-05-07T06:40:10;14.40;99.90
16140;DHT22;8175;49.326;12.690;2023-05-07T06:42:36;14.40;99.90
16140;DHT22;8175;49.326;12.690;2023-05-07T06:45:03;14.40;99.90
16140;DHT22;8175;49.326;12.690;2023-05-07T06:47:29;14.50;99.90
16140;DHT22;8175;49.326;12.690;2023-05-07T06:49:54;14.70;99.90
16140;DHT22;8175;49.326;12.690;2023-05-07T06:52:20;15.10;99.90
16140;DHT22;8175;49.326;12.690;2023-05-07T06:54:46;15.80;99.90
16140;DHT22;8175;49.326;12.690;2023-05-07T06:57:11;16.80;99.90
16140;DHT22;8175;49.326;12.690;2023-05-07T06:59:37;17.40;99.90
16140;DHT22;8175;49.326;12.690;2023-05-07T07:02:02;18.30;99.90
16140;DHT22;8175;49.326;12.690;2023-05-07T07:04:28;18.50;99.90
16140;DHT22;8175;49.326;12.690;2023-05-07T07:06:54;18.40;99.90
16140;DHT22;8175;49.326;12.690;2023-05-07T07:09:19;18.10;99.90
16140;DHT22;8175;49.326;12.690;2023-05-07T07:11:45;17.60;99.90
16140;DHT22;8175;49.326;12.690;2023-05-07T07:14:11;17.20;99.90
16140;DHT22;8175;49.326;12.690;2023-05-07T07:16:36;17.00;99.90
16140;DHT22;8175;49.326;12.690;2023-05-07T07:19:02;17.30;99.90
16140;DHT22;8175;49.326;12.690;2023-05-07T07:21:28;17.40;99.90
16140;DHT22;8175;49.326;12.690;2023-05-07T07:23:53;17.60;99.90
16140;DHT22;8175;49.326;12.690;2023-05-07T07:26:19;17.70;99.90
16140;DHT22;8175;49.326;12.690;2023-05-07T07:28:45;18.60;99.90
16140;DHT22;8175;49.326;12.690;2023-05-07T07:31:11;19.50;99.90
16140;DHT22;8175;49.326;12.690;2023-05-07T07:33:37;20.60;99.90
16140;DHT22;8175;49.326;12.690;2023-05-07T07:36:04;21.20;99.90
16140;DHT22;8175;49.326;12.690;2023-05-07T07:38:30;21.60;99.90
16140;DHT22;8175;49.326;12.690;2023-05-07T07:40:56;21.90;99.90
16140;DHT22;8175;49.326;12.690;2023-05-07T07:43:21;22.70;99.90
16140;DHT22;8175;49.326;12.690;2023-05-07T07:45:47;23.10;99.90
16140;DHT22;8175;49.326;12.690;2023-05-07T07:48:13;22.90;99.10
16140;DHT22;8175;49.326;12.690;2023-05-07T07:50:38;22.90;99.50
16140;DHT22;8175;49.326;12.690;2023-05-07T07:53:04;22.80;99.00
16140;DHT22;8175;49.326;12.690;2023-05-07T07:55:29;22.50;98.00
16140;DHT22;8175;49.326;12.690;2023-05-07T07:57:56;22.70;97.90
16140;DHT22;8175;49.326;12.690;2023-05-07T08:00:22;22.60;98.50
16140;DHT22;8175;49.326;12.690;2023-05-07T08:02:47;22.80;97.00
16140;DHT22;8175;49.326;12.690;2023-05-07T08:05:13;23.20;97.10
16140;DHT22;8175;49.326;12.690;2023-05-07T08:07:39;23.40;95.40
16140;DHT22;8175;49.326;12.690;2023-05-07T08:10:05;23.80;95.70
16140;DHT22;8175;49.326;12.690;2023-05-07T08:12:30;23.80;94.90
16140;DHT22;8175;49.326;12.690;2023-05-07T08:14:56;23.70;96.20
16140;DHT22;8175;49.326;12.690;2023-05-07T08:17:21;23.90;93.30
16140;DHT22;8175;49.326;12.690;2023-05-07T08:19:48;23.30;96.40
16140;DHT22;8175;49.326;12.690;2023-05-07T08:22:13;23.70;93.10
16140;DHT22;8175;49.326;12.690;2023-05-07T08:24:39;23.70;93.80
16140;DHT22;8175;49.326;12.690;2023-05-07T08:27:05;24.40;93.40
16140;DHT22;8175;49.326;12.690;2023-05-07T08:29:31;25.20;91.80
16140;DHT22;8175;49.326;12.690;2023-05-07T08:31:56;25.10;90.00
16140;DHT22;8175;49.326;12.690;2023-05-07T08:34:22;25.40;87.90
16140;DHT22;8175;49.326;12.690;2023-05-07T08:36:48;25.00;87.70
16140;DHT22;8175;49.326;12.690;2023-05-07T08:39:15;24.90;89.00
16140;DHT22;8175;49.326;12.690;2023-05-07T08:41:44;25.80;84.30
16140;DHT22;8175;49.326;12.690;2023-05-07T08:44:12;26.30;80.00
16140;DHT22;8175;49.326;12.690;2023-05-07T08:46:39;26.20;77.70
16140;DHT22;8175;49.326;12.690;2023-05-07T08:49:07;25.80;73.10
16140;DHT22;8175;49.326;12.690;2023-05-07T08:51:33;26.70;80.60
16140;DHT22;8175;49.326;12.690;2023-05-07T08:53:59;27.30;71.70
16140;DHT22;8175;49.326;12.690;2023-05-07T08:56:26;27.30;70.00
16140;DHT22;8175;49.326;12.690;2023-05-07T08:58:52;27.40;74.70
16140;DHT22;8175;49.326;12.690;2023-05-07T09:01:22;27.10;67.90
16140;DHT22;8175;49.326;12.690;2023-05-07T09:03:47;25.50;72.30
16140;DHT22;8175;49.326;12.690;2023-05-07T09:06:13;26.40;72.10
16140;DHT22;8175;49.326;12.690;2023-05-07T09:08:39;27.40;71.10
16140;DHT22;8175;49.326;12.690;2023-05-07T09:11:05;27.30;67.00
16140;DHT22;8175;49.326;12.690;2023-05-07T09:13:30;27.00;72.90
16140;DHT22;8175;49.326;12.690;2023-05-07T09:15:56;27.90;68.30
16140;DHT22;8175;49.326;12.690;2023-05-07T09:18:24;26.90;64.30
16140;DHT22;8175;49.326;12.690;2023-05-07T09:20:50;27.70;70.40
16140;DHT22;8175;49.326;12.690;2023-05-07T09:23:16;27.40;62.60
16140;DHT22;8175;49.326;12.690;2023-05-07T09:25:42;25.80;65.50
16140;DHT22;8175;49.326;12.690;2023-05-07T09:28:07;26.60;71.50
16140;DHT22;8175;49.326;12.690;2023-05-07T09:30:35;27.80;60.20
16140;DHT22;8175;49.326;12.690;2023-05-07T09:33:02;27.20;61.50
16140;DHT22;8175;49.326;12.690;2023-05-07T09:35:28;26.70;61.10
16140;DHT22;8175;49.326;12.690;2023-05-07T09:37:55;24.80;70.30
16140;DHT22;8175;49.326;12.690;2023-05-07T09:40:29;23.40;72.50
16140;DHT22;8175;49.326;12.690;2023-05-07T09:42:55;23.50;76.10
16140;DHT22;8175;49.326;12.690;2023-05-07T09:45:25;25.00;71.60
16140;DHT22;8175;49.326;12.690;2023-05-07T09:47:54;25.50;68.20
16140;DHT22;8175;49.326;12.690;2023-05-07T09:50:25;25.40;68.80
16140;DHT22;8175;49.326;12.690;2023-05-07T09:52:51;26.10;66.70
16140;DHT22;8175;49.326;12.690;2023-05-07T09:55:17;26.10;68.00
16140;DHT22;8175;49.326;12.690;2023-05-07T09:57:44;26.00;67.10
16140;DHT22;8175;49.326;12.690;2023-05-07T10:00:11;25.20;72.20
16140;DHT22;8175;49.326;12.690;2023-05-07T10:02:37;25.60;70.20
16140;DHT22;8175;49.326;12.690;2023-05-07T10:05:06;25.80;67.60
16140;DHT22;8175;49.326;12.690;2023-05-07T10:07:32;24.50;70.10
16140;DHT22;8175;49.326;12.690;2023-05-07T10:09:59;24.40;73.00
16140;DHT22;8175;49.326;12.690;2023-05-07T10:12:25;22.90;72.80
16140;DHT22;8175;49.326;12.690;2023-05-07T10:14:53;21.80;83.60
16140;DHT22;8175;49.326;12.690;2023-05-07T10:17:20;21.30;84.30
16140;DHT22;8175;49.326;12.690;2023-05-07T10:19:46;22.70;83.40
16140;DHT22;8175;49.326;12.690;2023-05-07T10:22:14;23.90;73.60
16140;DHT22;8175;49.326;12.690;2023-05-07T10:24:41;24.40;75.80
16140;DHT22;8175;49.326;12.690;2023-05-07T10:27:12;23.50;73.90
16140;DHT22;8175;49.326;12.690;2023-05-07T10:32:50;25.80;69.20
16140;DHT22;8175;49.326;12.690;2023-05-07T10:35:29;26.20;71.90
16140;DHT22;8175;49.326;12.690;2023-05-07T10:37:57;27.40;66.50
16140;DHT22;8175;49.326;12.690;2023-05-07T10:40:23;26.40;62.60
16140;DHT22;8175;49.326;12.690;2023-05-07T10:42:56;26.30;67.60
16140;DHT22;8175;49.326;12.690;2023-05-07T10:45:23;25.60;69.80
16140;DHT22;8175;49.326;12.690;2023-05-07T10:50:35;25.50;69.20
16140;DHT22;8175;49.326;12.690;2023-05-07T10:55:43;24.70;68.70
16140;DHT22;8175;49.326;12.690;2023-05-07T10:58:27;25.00;66.10
16140;DHT22;8175;49.326;12.690;2023-05-07T11:00:58;25.40;69.30
16140;DHT22;8175;49.326;12.690;2023-05-07T11:03:25;25.10;69.40
16140;DHT22;8175;49.326;12.690;2023-05-07T11:08:55;26.40;67.60
16140;DHT22;8175;49.326;12.690;2023-05-07T11:11:48;27.20;61.50
16140;DHT22;8175;49.326;12.690;2023-05-07T11:17:15;28.10;59.80
16140;DHT22;8175;49.326;12.690;2023-05-07T11:19:52;28.50;64.60
16140;DHT22;8175;49.326;12.690;2023-05-07T11:25:05;27.60;59.70
16140;DHT22;8175;49.326;12.690;2023-05-07T11:27:32;27.20;61.60
16140;DHT22;8175;49.326;12.690;2023-05-07T11:29:58;26.10;60.60
16140;DHT22;8175;49.326;12.690;2023-05-07T11:32:33;25.30;63.90
16140;DHT22;8175;49.326;12.690;2023-05-07T11:34:59;24.50;69.20
16140;DHT22;8175;49.326;12.690;2023-05-07T11:37:27;24.10;73.00
16140;DHT22;8175;49.326;12.690;2023-05-07T11:40:05;24.70;69.90
16140;DHT22;8175;49.326;12.690;2023-05-07T11:42:36;26.30;64.70
16140;DHT22;8175;49.326;12.690;2023-05-07T11:45:03;26.70;64.80
16140;DHT22;8175;49.326;12.690;2023-05-07T11:47:33;27.10;66.60
16140;DHT22;8175;49.326;12.690;2023-05-07T11:50:06;28.00;62.20
16140;DHT22;8175;49.326;12.690;2023-05-07T11:52:33;27.40;61.70
16140;DHT22;8175;49.326;12.690;2023-05-07T11:55:00;27.70;61.10
16140;DHT22;8175;49.326;12.690;2023-05-07T11:57:26;28.00;62.20
16140;DHT22;8175;49.326;12.690;2023-05-07T11:59:53;26.50;67.40
16140;DHT22;8175;49.326;12.690;2023-05-07T12:02:19;26.00;65.90
16140;DHT22;8175;49.326;12.690;2023-05-07T12:04:45;25.60;63.40
16140;DHT22;8175;49.326;12.690;2023-05-07T12:07:15;24.50;68.70
16140;DHT22;8175;49.326;12.690;2023-05-07T12:09:44;24.10;68.30
16140;DHT22;8175;49.326;12.690;2023-05-07T12:12:10;23.40;71.80
16140;DHT22;8175;49.326;12.690;2023-05-07T12:14:40;22.70;68.50
16140;DHT22;8175;49.326;12.690;2023-05-07T12:17:07;23.40;75.30
16140;DHT22;8175;49.326;12.690;2023-05-07T12:19:34;24.40;71.80
16140;DHT22;8175;49.326;12.690;2023-05-07T12:22:02;23.60;76.30
16140;DHT22;8175;49.326;12.690;2023-05-07T12:24:28;23.80;73.20
16140;DHT22;8175;49.326;12.690;2023-05-07T12:26:53;24.40;70.30
16140;DHT22;8175;49.326;12.690;2023-05-07T12:29:22;24.30;63.80
16140;DHT22;8175;49.326;12.690;2023-05-07T12:31:50;23.90;69.00
16140;DHT22;8175;49.326;12.690;2023-05-07T12:34:16;24.10;70.00
16140;DHT22;8175;49.326;12.690;2023-05-07T12:36:41;24.90;72.10
16140;DHT22;8175;49.326;12.690;2023-05-07T12:39:08;26.10;69.70
16140;DHT22;8175;49.326;12.690;2023-05-07T12:41:54;25.70;65.10
16140;DHT22;8175;49.326;12.690;2023-05-07T12:44:24;25.40;72.20
16140;DHT22;8175;49.326;12.690;2023-05-07T12:46:51;24.80;65.50
16140;DHT22;8175;49.326;12.690;2023-05-07T12:49:16;24.30;72.40
16140;DHT22;8175;49.326;12.690;2023-05-07T12:51:43;23.30;69.00
16140;DHT22;8175;49.326;12.690;2023-05-07T12:54:09;23.70;68.90
16140;DHT22;8175;49.326;12.690;2023-05-07T12:56:39;23.90;69.00
16140;DHT22;8175;49.326;12.690;2023-05-07T12:59:05;24.10;67.30
16140;DHT22;8175;49.326;12.690;2023-05-07T13:01:31;24.00;74.30
16140;DHT22;8175;49.326;12.690;2023-05-07T13:04:03;24.00;68.60
16140;DHT22;8175;49.326;12.690;2023-05-07T13:06:30;24.40;72.90
16140;DHT22;8175;49.326;12.690;2023-05-07T13:08:56;24.20;68.40
16140;DHT22;8175;49.326;12.690;2023-05-07T13:11:22;24.30;77.20
16140;DHT22;8175;49.326;12.690;2023-05-07T13:13:48;23.70;69.20
16140;DHT22;8175;49.326;12.690;2023-05-07T13:16:13;23.50;66.90
16140;DHT22;8175;49.326;12.690;2023-05-07T13:18:40;23.70;69.80
16140;DHT22;8175;49.326;12.690;2023-05-07T13:21:06;23.30;68.90
16140;DHT22;8175;49.326;12.690;2023-05-07T13:23:32;23.70;69.40
16140;DHT22;8175;49.326;12.690;2023-05-07T13:25:57;23.80;70.30
16140;DHT22;8175;49.326;12.690;2023-05-07T13:28:24;24.40;71.80
16140;DHT22;8175;49.326;12.690;2023-05-07T13:30:50;22.70;72.10
16140;DHT22;8175;49.326;12.690;2023-05-07T13:33:17;22.90;72.30
16140;DHT22;8175;49.326;12.690;2023-05-07T13:35:43;23.60;71.60
16140;DHT22;8175;49.326;12.690;2023-05-07T13:38:08;23.50;70.80
16140;DHT22;8175;49.326;12.690;2023-05-07T13:40:34;23.50;68.20
16140;DHT22;8175;49.326;12.690;2023-05-07T13:43:00;24.20;71.50
16140;DHT22;8175;49.326;12.690;2023-05-07T13:45:28;23.90;69.20
16140;DHT22;8175;49.326;12.690;2023-05-07T13:47:55;24.60;68.60
16140;DHT22;8175;49.326;12.690;2023-05-07T13:50:21;24.50;68.00
16140;DHT22;8175;49.326;12.690;2023-05-07T13:52:47;24.60;71.30
16140;DHT22;8175;49.326;12.690;2023-05-07T13:55:23;24.50;68.90
16140;DHT22;8175;49.326;12.690;2023-05-07T13:57:55;23.50;69.40
16140;DHT22;8175;49.326;12.690;2023-05-07T14:00:21;22.50;70.60
16140;DHT22;8175;49.326;12.690;2023-05-07T14:02:47;21.80;77.00
16140;DHT22;8175;49.326;12.690;2023-05-07T14:05:13;21.90;77.40
16140;DHT22;8175;49.326;12.690;2023-05-07T14:07:39;22.60;73.60
16140;DHT22;8175;49.326;12.690;2023-05-07T14:10:05;22.60;74.90
16140;DHT22;8175;49.326;12.690;2023-05-07T14:12:32;22.40;71.50
16140;DHT22;8175;49.326;12.690;2023-05-07T14:14:57;22.60;74.80
16140;DHT22;8175;49.326;12.690;2023-05-07T14:17:23;22.30;72.60
16140;DHT22;8175;49.326;12.690;2023-05-07T14:19:50;22.30;74.50
16140;DHT22;8175;49.326;12.690;2023-05-07T14:22:16;23.10;75.40
16140;DHT22;8175;49.326;12.690;2023-05-07T14:24:41;22.40;73.70
16140;DHT22;8175;49.326;12.690;2023-05-07T14:27:07;21.40;79.20
16140;DHT22;8175;49.326;12.690;2023-05-07T14:29:33;20.60;79.10
16140;DHT22;8175;49.326;12.690;2023-05-07T14:32:01;21.00;82.80
16140;DHT22;8175;49.326;12.690;2023-05-07T14:34:26;20.70;81.70
16140;DHT22;8175;49.326;12.690;2023-05-07T14:36:52;20.60;83.00
16140;DHT22;8175;49.326;12.690;2023-05-07T14:39:17;20.40;82.10
16140;DHT22;8175;49.326;12.690;2023-05-07T14:41:43;20.50;85.20
16140;DHT22;8175;49.326;12.690;2023-05-07T14:44:09;21.60;83.10
16140;DHT22;8175;49.326;12.690;2023-05-07T14:46:34;22.00;81.40
16140;DHT22;8175;49.326;12.690;2023-05-07T14:49:01;21.60;82.90
16140;DHT22;8175;49.326;12.690;2023-05-07T14:51:27;21.00;79.40
16140;DHT22;8175;49.326;12.690;2023-05-07T14:53:54;21.50;81.30
16140;DHT22;8175;49.326;12.690;2023-05-07T14:56:20;21.60;81.00
16140;DHT22;8175;49.326;12.690;2023-05-07T14:58:47;21.80;83.60
16140;DHT22;8175;49.326;12.690;2023-05-07T15:01:13;20.90;81.60
16140;DHT22;8175;49.326;12.690;2023-05-07T15:03:39;20.60;89.40
16140;DHT22;8175;49.326;12.690;2023-05-07T15:06:05;20.00;86.00
16140;DHT22;8175;49.326;12.690;2023-05-07T15:08:31;20.20;82.70
16140;DHT22;8175;49.326;12.690;2023-05-07T15:10:56;19.90;90.00
16140;DHT22;8175;49.326;12.690;2023-05-07T15:13:22;20.30;90.30
16140;DHT22;8175;49.326;12.690;2023-05-07T15:15:48;20.60;88.20
16140;DHT22;8175;49.326;12.690;2023-05-07T15:18:15;20.60;85.50
16140;DHT22;8175;49.326;12.690;2023-05-07T15:20:41;20.00;87.80
16140;DHT22;8175;49.326;12.690;2023-05-07T15:23:07;19.90;90.40
16140;DHT22;8175;49.326;12.690;2023-05-07T15:25:37;19.90;90.50
16140;DHT22;8175;49.326;12.690;2023-05-07T15:28:03;20.30;88.40
16140;DHT22;8175;49.326;12.690;2023-05-07T15:30:29;20.20;89.90
16140;DHT22;8175;49.326;12.690;2023-05-07T15:32:55;20.60;88.10
16140;DHT22;8175;49.326;12.690;2023-05-07T15:35:21;20.30;84.10
16140;DHT22;8175;49.326;12.690;2023-05-07T15:37:48;20.00;88.60
16140;DHT22;8175;49.326;12.690;2023-05-07T15:40:16;20.10;89.00
16140;DHT22;8175;49.326;12.690;2023-05-07T15:42:44;20.60;88.80
16140;DHT22;8175;49.326;12.690;2023-05-07T15:45:10;20.80;86.10
16140;DHT22;8175;49.326;12.690;2023-05-07T15:47:36;21.00;84.90
16140;DHT22;8175;49.326;12.690;2023-05-07T15:50:02;20.60;85.20
16140;DHT22;8175;49.326;12.690;2023-05-07T15:52:29;20.30;86.60
16140;DHT22;8175;49.326;12.690;2023-05-07T15:54:55;19.90;89.10
16140;DHT22;8175;49.326;12.690;2023-05-07T15:57:22;19.80;90.40
16140;DHT22;8175;49.326;12.690;2023-05-07T15:59:48;19.30;92.00
16140;DHT22;8175;49.326;12.690;2023-05-07T16:02:14;19.50;89.90
16140;DHT22;8175;49.326;12.690;2023-05-07T16:04:39;18.90;93.00
16140;DHT22;8175;49.326;12.690;2023-05-07T16:07:05;19.10;92.90
16140;DHT22;8175;49.326;12.690;2023-05-07T16:09:32;19.40;92.50
16140;DHT22;8175;49.326;12.690;2023-05-07T16:11:59;19.10;93.10
16140;DHT22;8175;49.326;12.690;2023-05-07T16:14:24;18.30;94.80
16140;DHT22;8175;49.326;12.690;2023-05-07T16:16:50;18.30;98.80
16140;DHT22;8175;49.326;12.690;2023-05-07T16:19:16;18.40;97.00
16140;DHT22;8175;49.326;12.690;2023-05-07T16:21:41;18.90;99.90
16140;DHT22;8175;49.326;12.690;2023-05-07T16:24:07;19.10;99.90
16140;DHT22;8175;49.326;12.690;2023-05-07T16:26:32;19.20;99.60
16140;DHT22;8175;49.326;12.690;2023-05-07T16:28:59;18.40;99.90
16140;DHT22;8175;49.326;12.690;2023-05-07T16:31:26;18.10;99.90
16140;DHT22;8175;49.326;12.690;2023-05-07T16:33:51;17.90;99.90
16140;DHT22;8175;49.326;12.690;2023-05-07T16:36:17;17.70;99.90
16140;DHT22;8175;49.326;12.690;2023-05-07T16:38:43;17.50;99.90
16140;DHT22;8175;49.326;12.690;2023-05-07T16:41:09;17.40;99.90
16140;DHT22;8175;49.326;12.690;2023-05-07T16:43:35;17.60;99.90
16140;DHT22;8175;49.326;12.690;2023-05-07T16:46:00;17.70;99.90
16140;DHT22;8175;49.326;12.690;2023-05-07T16:48:26;17.50;99.90
16140;DHT22;8175;49.326;12.690;2023-05-07T16:50:52;17.30;99.90
16140;DHT22;8175;49.326;12.690;2023-05-07T16:53:18;17.30;99.90
16140;DHT22;8175;49.326;12.690;2023-05-07T16:55:44;17.20;99.90
16140;DHT22;8175;49.326;12.690;2023-05-07T16:58:11;17.00;99.90
16140;DHT22;8175;49.326;12.690;2023-05-07T17:00:37;16.60;99.90
16140;DHT22;8175;49.326;12.690;2023-05-07T17:03:03;16.50;99.90
16140;DHT22;8175;49.326;12.690;2023-05-07T17:05:29;15.90;99.90
16140;DHT22;8175;49.326;12.690;2023-05-07T17:07:55;16.00;99.90
16140;DHT22;8175;49.326;12.690;2023-05-07T17:10:22;16.10;99.90
16140;DHT22;8175;49.326;12.690;2023-05-07T17:12:48;16.10;99.90
16140;DHT22;8175;49.326;12.690;2023-05-07T17:15:14;16.30;99.90
16140;DHT22;8175;49.326;12.690;2023-05-07T17:17:40;16.30;99.90
16140;DHT22;8175;49.326;12.690;2023-05-07T17:20:06;16.20;99.90
16140;DHT22;8175;49.326;12.690;2023-05-07T17:22:32;16.10;99.90
16140;DHT22;8175;49.326;12.690;2023-05-07T17:24:58;15.60;99.90
16140;DHT22;8175;49.326;12.690;2023-05-07T17:27:25;15.40;99.90
16140;DHT22;8175;49.326;12.690;2023-05-07T17:29:51;15.40;99.90
16140;DHT22;8175;49.326;12.690;2023-05-07T17:32:17;15.30;99.90
16140;DHT22;8175;49.326;12.690;2023-05-07T17:34:42;15.30;99.90
16140;DHT22;8175;49.326;12.690;2023-05-07T17:37:08;15.20;99.90
16140;DHT22;8175;49.326;12.690;2023-05-07T17:39:34;15.00;99.90
16140;DHT22;8175;49.326;12.690;2023-05-07T17:42:00;14.90;99.90
16140;DHT22;8175;49.326;12.690;2023-05-07T17:44:25;14.80;99.90
16140;DHT22;8175;49.326;12.690;2023-05-07T17:46:51;14.70;99.90
16140;DHT22;8175;49.326;12.690;2023-05-07T17:49:17;14.60;99.90
16140;DHT22;8175;49.326;12.690;2023-05-07T17:51:42;14.50;99.90
16140;DHT22;8175;49.326;12.690;2023-05-07T17:54:08;14.50;99.90